Time;durP1;ratioP1;P1;durP2;ratioP2;P2;SDS_P1;SDS_P2;PMS_P1;PMS_P2;Temp;Humidity;BMP_temperature;BMP_pressure;BME280_temperature;BME280_humidity;BME280_pressure;Samples;Min_cycle;Max_cycle;Signal;HPM_P1;HPM_P2
2023/09/01 00:01:03;;;;;;;23.95;16.42;;;;;;;19.56;68.07;100462.63;5094231;28;20402;-41
2023/09/01 00:03:30;;;;;;;28.17;17.63;;;;;;;19.52;67.60;100462.34;5095872;28;20072;-41
2023/09/01 00:05:58;;;;;;;25.48;16.08;;;;;;;19.45;68.23;100459.09;5095116;28;20031;-40
2023/09/01 00:08:25;;;;;;;25.60;16.52;;;;;;;19.30;68.86;100459.94;5097276;28;20111;-41
2023/09/01 00:10:51;;;;;;;26.98;16.30;;;;;;;19.18;69.38;100452.06;5095252;28;20132;-40
2023/09/01 00:13:17;;;;;;;20.90;15.57;;;;;;;19.12;69.57;100450.44;5095305;28;20024;-41
2023/09/01 00:15:44;;;;;;;23.83;15.65;;;;;;;19.07;70.41;100442.31;5095242;28;20035;-41
2023/09/01 00:18:11;;;;;;;24.88;16.23;;;;;;;19.00;69.92;100439.06;5095193;28;20089;-41
2023/09/01 00:20:37;;;;;;;25.23;15.85;;;;;;;19.15;69.87;100443.66;5080341;28;20082;-41
2023/09/01 00:23:03;;;;;;;23.90;16.27;;;;;;;19.21;69.73;100427.13;5115180;28;20069;-41
2023/09/01 00:25:30;;;;;;;27.35;16.15;;;;;;;19.13;69.32;100429.56;5103551;28;20051;-41
2023/09/01 00:27:57;;;;;;;24.48;15.75;;;;;;;19.11;69.32;100437.16;5115414;28;20028;-41
2023/09/01 00:30:23;;;;;;;22.63;15.52;;;;;;;19.19;69.85;100431.19;5115605;28;20469;-41
2023/09/01 00:32:49;;;;;;;29.02;15.02;;;;;;;19.23;69.31;100433.09;5115157;28;20028;-40
2023/09/01 00:35:15;;;;;;;24.65;15.25;;;;;;;19.22;69.67;100433.38;5095346;28;20032;-41
2023/09/01 00:37:42;;;;;;;22.00;15.75;;;;;;;19.17;69.19;100439.59;5095238;28;20024;-39
2023/09/01 00:40:09;;;;;;;24.92;16.30;;;;;;;18.80;71.48;100434.44;5090047;28;20036;-42
2023/09/01 00:42:35;;;;;;;23.40;15.65;;;;;;;18.68;71.25;100428.47;5074520;28;20032;-42
2023/09/01 00:45:01;;;;;;;29.58;16.42;;;;;;;18.29;73.29;100434.34;5074433;28;20051;-42
2023/09/01 00:47:27;;;;;;;26.15;15.50;;;;;;;18.43;72.68;100429.22;5107078;28;20501;-40
2023/09/01 00:49:54;;;;;;;27.42;15.88;;;;;;;18.27;73.74;100431.09;5115015;28;20027;-40
2023/09/01 00:52:20;;;;;;;26.58;16.55;;;;;;;18.00;74.71;100430.47;5103016;28;20089;-40
2023/09/01 00:54:46;;;;;;;26.02;16.27;;;;;;;18.05;74.09;100431.28;5076404;28;20390;-43
2023/09/01 00:57:12;;;;;;;25.85;16.08;;;;;;;17.91;75.46;100432.84;5094660;28;20020;-46
2023/09/01 00:59:39;;;;;;;25.90;15.98;;;;;;;17.83;75.33;100431.47;5097161;28;20028;-48
2023/09/01 01:02:05;;;;;;;22.92;15.30;;;;;;;17.74;76.12;100434.94;5092789;28;20028;-47
2023/09/01 01:04:33;;;;;;;21.88;14.95;;;;;;;17.61;76.83;100428.88;5090205;28;20036;-44
2023/09/01 01:07:10;;;;;;;26.45;15.77;;;;;;;17.78;77.12;100427.94;5073317;28;20032;-44
2023/09/01 01:09:55;;;;;;;25.92;17.38;;;;;;;17.57;77.64;100433.19;5071133;28;20067;-52
2023/09/01 01:12:36;;;;;;;29.67;17.42;;;;;;;17.69;77.93;100425.69;5088738;28;20073;-45
2023/09/01 01:15:09;;;;;;;28.30;17.48;;;;;;;17.60;77.86;100421.84;5093342;28;20028;-44
2023/09/01 01:17:46;;;;;;;25.55;15.95;;;;;;;17.60;78.79;100423.72;5081513;28;20486;-45
2023/09/01 01:20:32;;;;;;;27.17;15.77;;;;;;;17.78;78.30;100417.09;5073705;28;20035;-44
2023/09/01 01:23:12;;;;;;;27.73;16.17;;;;;;;17.76;78.30;100416.53;5079309;28;20031;-45
2023/09/01 01:25:49;;;;;;;23.98;16.02;;;;;;;17.76;78.09;100400.28;5093441;28;20023;-55
2023/09/01 01:28:16;;;;;;;26.75;16.02;;;;;;;17.83;78.01;100401.69;5093642;28;20108;-45
2023/09/01 01:30:43;;;;;;;30.67;16.20;;;;;;;17.84;78.28;100406.03;5073311;28;20025;-45
2023/09/01 01:33:37;;;;;;;27.88;16.90;;;;;;;17.81;78.38;100413.84;5090256;28;20030;-44
2023/09/01 01:36:21;;;;;;;27.40;14.98;;;;;;;17.73;78.74;100403.53;5070594;28;20406;-44
2023/09/01 01:38:59;;;;;;;26.80;15.45;;;;;;;17.85;78.21;100410.34;5072514;28;20115;-45
2023/09/01 01:41:33;;;;;;;24.80;15.57;;;;;;;17.75;78.74;100407.59;5073270;28;20033;-45
2023/09/01 01:44:03;;;;;;;23.75;14.18;;;;;;;17.84;78.19;100407.91;5082593;28;20111;-47
2023/09/01 01:46:29;;;;;;;24.55;14.13;;;;;;;17.80;76.60;100407.63;5093555;28;20020;-45
2023/09/01 01:48:55;;;;;;;25.05;14.07;;;;;;;17.86;76.73;100409.25;5093626;28;20516;-46
2023/09/01 01:51:22;;;;;;;19.30;12.68;;;;;;;17.86;77.37;100409.25;5093536;28;20125;-44
2023/09/01 01:53:48;;;;;;;25.85;12.05;;;;;;;17.88;77.41;100404.41;5093117;28;20509;-47
2023/09/01 01:56:15;;;;;;;21.50;11.30;;;;;;;17.67;78.88;100408.91;5093496;28;20034;-45
2023/09/01 01:58:41;;;;;;;19.70;10.30;;;;;;;17.85;78.76;100413.06;5093193;28;20034;-44
2023/09/01 02:01:08;;;;;;;24.85;10.10;;;;;;;17.83;79.04;100409.81;5089704;28;20432;-45
2023/09/01 02:03:34;;;;;;;21.88;10.43;;;;;;;17.88;79.23;100401.72;5097320;28;20031;-45
2023/09/01 02:06:01;;;;;;;19.85;9.57;;;;;;;17.79;79.89;100397.06;5095349;28;20427;-45
2023/09/01 02:08:27;;;;;;;18.25;8.10;;;;;;;17.91;79.40;100403.88;5101246;28;20031;-44
2023/09/01 02:10:55;;;;;;;17.33;8.40;;;;;;;17.75;80.41;100399.47;5075464;28;20033;-45
2023/09/01 02:13:21;;;;;;;15.93;7.47;;;;;;;17.81;80.18;100405.72;5072800;28;20029;-45
2023/09/01 02:15:51;;;;;;;15.05;6.90;;;;;;;17.79;80.74;100391.66;5075455;28;20035;-46
2023/09/01 02:18:18;;;;;;;27.40;7.70;;;;;;;17.53;81.96;100399.59;5073845;28;20028;-45
2023/09/01 02:20:44;;;;;;;21.80;7.47;;;;;;;17.38;nan;100403.06;5112887;28;20032;-46
2023/09/01 02:23:13;;;;;;;19.77;7.15;;;;;;;17.44;83.22;100403.09;5095092;28;20020;-49
2023/09/01 02:25:39;;;;;;;16.67;5.88;;;;;;;17.44;83.92;100405.81;5112818;28;20382;-45
2023/09/01 02:28:05;;;;;;;16.20;6.13;;;;;;;17.46;83.68;100404.44;5111332;28;20063;-44
2023/09/01 02:30:32;;;;;;;20.35;6.18;;;;;;;17.25;85.15;100398.09;5091180;28;20065;-44
2023/09/01 02:32:58;;;;;;;19.55;6.13;;;;;;;17.34;85.12;100403.84;5093648;28;20035;-45
2023/09/01 02:35:24;;;;;;;16.40;5.75;;;;;;;17.28;85.82;100394.06;5092032;28;20051;-45
2023/09/01 02:37:50;;;;;;;18.75;6.25;;;;;;;17.19;86.73;100390.22;5092478;28;20491;-45
2023/09/01 02:40:17;;;;;;;16.10;5.32;;;;;;;17.34;86.32;100391.13;5092700;28;20559;-45
2023/09/01 02:42:43;;;;;;;16.23;5.70;;;;;;;17.40;85.76;100387.38;5092288;28;20490;-45
2023/09/01 02:45:13;;;;;;;18.15;5.30;;;;;;;17.25;86.88;100397.28;5091967;28;20104;-45
2023/09/01 02:47:40;;;;;;;17.45;5.20;;;;;;;17.41;86.26;100393.59;5087497;28;20115;-46
2023/09/01 02:50:07;;;;;;;14.88;5.45;;;;;;;17.30;86.66;100398.13;5080808;28;20035;-46
2023/09/01 02:52:34;;;;;;;12.88;4.47;;;;;;;17.14;87.71;100405.31;5077117;28;20048;-45
2023/09/01 02:55:00;;;;;;;15.35;5.38;;;;;;;17.07;88.35;100407.44;5087141;28;20424;-45
2023/09/01 02:57:28;;;;;;;12.27;4.47;;;;;;;17.06;88.56;100410.41;5092228;28;20075;-45
2023/09/01 02:59:55;;;;;;;14.57;4.45;;;;;;;16.98;90.03;100400.06;5092224;28;20061;-46
2023/09/01 03:02:21;;;;;;;13.80;5.25;;;;;;;17.07;89.71;100403.94;5092147;28;20024;-47
2023/09/01 03:04:55;;;;;;;12.60;5.07;;;;;;;16.99;90.44;100407.09;5092132;28;20036;-45
2023/09/01 03:07:22;;;;;;;14.23;4.10;;;;;;;17.09;90.17;100408.00;5091874;28;20386;-48
2023/09/01 03:09:48;;;;;;;14.23;4.68;;;;;;;17.09;90.21;100404.47;5092211;28;20036;-46
2023/09/01 03:12:14;;;;;;;12.32;4.25;;;;;;;17.03;90.29;100409.03;5092317;28;20016;-46
2023/09/01 03:14:40;;;;;;;14.15;4.07;;;;;;;16.89;91.66;100416.78;5092082;28;20035;-47
2023/09/01 03:17:07;;;;;;;16.75;4.15;;;;;;;16.95;91.33;100417.63;5092253;28;20027;-46
2023/09/01 03:19:33;;;;;;;13.65;4.13;;;;;;;16.98;91.27;100409.00;5105357;28;20420;-47
2023/09/01 03:21:59;;;;;;;14.65;4.15;;;;;;;16.90;91.96;100420.28;5112908;28;20030;-46
2023/09/01 03:24:27;;;;;;;21.63;8.73;;;;;;;16.94;92.04;100418.72;5098024;28;20127;-46
2023/09/01 03:26:53;;;;;;;11.25;3.67;;;;;;;17.03;92.00;100425.25;5091612;28;20031;-46
2023/09/01 03:29:20;;;;;;;20.40;4.50;;;;;;;16.98;91.90;100422.50;5092082;28;20031;-46
2023/09/01 03:31:46;;;;;;;11.27;4.00;;;;;;;17.01;92.01;100423.88;5091990;28;20031;-46
2023/09/01 03:34:12;;;;;;;15.07;4.32;;;;;;;17.00;92.14;100428.50;5091287;28;20035;-45
2023/09/01 03:36:39;;;;;;;15.27;4.78;;;;;;;16.90;93.18;100439.22;5092120;28;20024;-46
2023/09/01 03:39:07;;;;;;;13.70;4.40;;;;;;;16.95;93.07;100441.97;5091710;28;20020;-45
2023/09/01 03:41:36;;;;;;;13.00;4.28;;;;;;;17.01;92.37;100438.22;5091924;28;20036;-48
2023/09/01 03:44:02;;;;;;;12.10;4.15;;;;;;;17.07;92.33;100442.59;5091354;28;20032;-46
2023/09/01 03:46:29;;;;;;;16.20;4.15;;;;;;;17.05;92.00;100450.16;5091694;28;20497;-47
2023/09/01 03:48:55;;;;;;;21.45;4.93;;;;;;;16.99;92.53;100464.72;5091730;28;20059;-45
2023/09/01 03:51:21;;;;;;;16.13;4.47;;;;;;;16.86;93.60;100460.53;5091934;28;20417;-45
2023/09/01 03:53:48;;;;;;;19.85;5.28;;;;;;;16.81;93.86;100463.19;5091274;28;20082;-45
2023/09/01 03:56:19;;;;;;;20.02;4.80;;;;;;;16.86;93.27;100468.63;5091907;28;20040;-45
2023/09/01 03:58:46;;;;;;;19.60;4.40;;;;;;;16.82;93.30;100483.75;5091482;28;20016;-44
2023/09/01 04:01:12;;;;;;;15.65;4.10;;;;;;;16.93;92.97;100471.13;5091785;28;20039;-46
2023/09/01 04:03:40;;;;;;;13.55;4.00;;;;;;;16.89;93.15;100468.13;5091735;28;20427;-47
2023/09/01 04:06:06;;;;;;;21.52;4.72;;;;;;;16.97;93.46;100477.66;5091347;28;20046;-46
2023/09/01 04:08:34;;;;;;;14.73;4.20;;;;;;;16.84;94.04;100484.31;5091501;28;20043;-46
2023/09/01 04:11:01;;;;;;;13.52;4.32;;;;;;;16.98;93.70;100487.41;5092078;28;20032;-45
2023/09/01 04:13:28;;;;;;;9.05;3.60;;;;;;;17.02;93.31;100491.22;5091351;28;20035;-45
2023/09/01 04:15:55;;;;;;;17.40;5.00;;;;;;;16.89;94.31;100491.66;5091483;28;20024;-45
2023/09/01 04:18:22;;;;;;;15.07;3.63;;;;;;;16.98;94.00;100486.56;5091130;28;20024;-45
2023/09/01 04:20:49;;;;;;;12.63;4.25;;;;;;;16.84;94.31;100488.91;5091606;28;20496;-45
2023/09/01 04:23:15;;;;;;;12.45;3.92;;;;;;;16.74;95.07;100491.50;5092908;28;20032;-45
2023/09/01 04:25:45;;;;;;;16.88;4.78;;;;;;;16.67;95.22;100499.78;5091330;28;20039;-46
2023/09/01 04:28:12;;;;;;;12.43;3.97;;;;;;;16.72;94.32;100505.28;5090740;28;20047;-46
2023/09/01 04:30:39;;;;;;;18.00;4.25;;;;;;;16.67;94.36;100494.38;5089319;28;20020;-47
2023/09/01 04:33:06;;;;;;;13.50;3.90;;;;;;;16.63;93.94;100514.88;5089411;28;20020;-44
2023/09/01 04:35:35;;;;;;;7.00;3.20;;;;;;;16.66;93.90;100508.13;5090719;28;20028;-43
2023/09/01 04:38:01;;;;;;;15.10;4.28;;;;;;;16.59;93.76;100513.72;5092571;28;20377;-45
2023/09/01 04:40:28;;;;;;;10.18;3.17;;;;;;;16.49;93.75;100522.56;5090883;28;20023;-45
2023/09/01 04:42:55;;;;;;;10.07;3.22;;;;;;;16.58;93.33;100522.91;5094909;28;20036;-46
2023/09/01 04:45:22;;;;;;;11.77;3.65;;;;;;;16.57;92.89;100515.88;5094547;28;20143;-45
2023/09/01 04:47:50;;;;;;;12.90;3.85;;;;;;;16.50;93.09;100515.28;5095065;28;20560;-46
2023/09/01 04:50:16;;;;;;;9.15;2.85;;;;;;;16.52;93.22;100521.22;5093670;28;20028;-45
2023/09/01 04:52:43;;;;;;;8.73;2.72;;;;;;;16.49;92.58;100511.75;5094271;28;20048;-45
2023/09/01 04:55:09;;;;;;;10.02;2.92;;;;;;;16.46;93.04;100517.66;5084679;28;20032;-45
2023/09/01 04:57:36;;;;;;;12.23;3.00;;;;;;;16.39;93.00;100522.44;5074033;28;20032;-44
2023/09/01 05:00:07;;;;;;;15.32;3.47;;;;;;;16.23;94.51;100505.22;5079990;28;20128;-44
2023/09/01 05:02:33;;;;;;;10.95;3.33;;;;;;;16.32;94.08;100508.28;5074263;28;20041;-46
2023/09/01 05:04:59;;;;;;;12.75;3.53;;;;;;;16.31;94.19;100512.88;5073389;28;20036;-46
2023/09/01 05:07:25;;;;;;;10.70;3.65;;;;;;;16.30;93.91;100515.84;5074137;28;20368;-47
2023/09/01 05:09:52;;;;;;;9.05;3.22;;;;;;;16.29;93.49;100523.13;5073437;28;20035;-46
2023/09/01 05:12:19;;;;;;;8.45;2.88;;;;;;;16.25;93.86;100523.88;5073722;28;20108;-47
2023/09/01 05:14:45;;;;;;;14.05;3.63;;;;;;;16.29;93.80;100519.63;5093284;28;20052;-46
2023/09/01 05:17:11;;;;;;;11.48;3.50;;;;;;;16.19;93.67;100525.69;5093718;28;20032;-45
2023/09/01 05:19:37;;;;;;;9.15;3.13;;;;;;;16.20;94.16;100515.72;5093699;28;20024;-46
2023/09/01 05:22:04;;;;;;;7.13;3.05;;;;;;;16.14;93.99;100522.13;5093866;28;20280;-45
2023/09/01 05:24:30;;;;;;;9.55;2.90;;;;;;;16.14;94.07;100530.22;5093009;28;20075;-47
2023/09/01 05:26:56;;;;;;;12.70;3.47;;;;;;;16.15;93.42;100518.34;5093634;28;20123;-45
2023/09/01 05:29:23;;;;;;;9.00;3.05;;;;;;;16.19;93.60;100522.19;5093752;28;20329;-45
2023/09/01 05:31:49;;;;;;;10.57;3.25;;;;;;;16.12;93.56;100535.06;5093573;28;20024;-47
2023/09/01 05:34:15;;;;;;;11.52;2.80;;;;;;;16.05;94.18;100519.84;5093226;28;20069;-45
2023/09/01 05:36:41;;;;;;;13.20;3.70;;;;;;;15.99;94.35;100523.56;5091236;28;20020;-47
2023/09/01 05:39:08;;;;;;;9.50;2.78;;;;;;;16.00;94.94;100518.97;5093326;28;20101;-46
2023/09/01 05:41:34;;;;;;;9.05;3.15;;;;;;;16.00;94.74;100522.50;5092215;28;20028;-45
2023/09/01 05:44:00;;;;;;;8.80;3.08;;;;;;;15.98;94.84;100519.19;5092937;28;20475;-45
2023/09/01 05:46:26;;;;;;;11.25;3.15;;;;;;;16.01;94.19;100528.69;5090639;28;20031;-45
2023/09/01 05:48:53;;;;;;;11.10;2.85;;;;;;;15.93;94.61;100524.53;5085303;28;20048;-45
2023/09/01 05:51:19;;;;;;;8.45;3.15;;;;;;;15.93;94.52;100527.22;5073833;28;20494;-46
2023/09/01 05:53:45;;;;;;;8.57;2.65;;;;;;;15.95;94.14;100535.09;5073442;28;20052;-45
2023/09/01 05:56:11;;;;;;;5.78;2.67;;;;;;;15.80;94.64;100528.41;5073044;28;20033;-46
2023/09/01 05:58:37;;;;;;;8.30;2.65;;;;;;;15.78;95.17;100522.44;5072904;28;20028;-46
2023/09/01 06:01:04;;;;;;;8.93;2.47;;;;;;;15.75;95.77;100530.22;5072884;28;20025;-47
2023/09/01 06:03:30;;;;;;;6.43;2.70;;;;;;;15.74;95.70;100528.59;5072809;28;20060;-46
2023/09/01 06:05:56;;;;;;;5.20;2.65;;;;;;;15.81;95.65;100534.63;5084824;28;20121;-46
2023/09/01 06:08:22;;;;;;;6.13;2.78;;;;;;;15.73;96.46;100527.78;5093162;28;20123;-46
2023/09/01 06:10:49;;;;;;;7.20;3.05;;;;;;;15.75;96.47;100533.72;5092584;28;20052;-46
2023/09/01 06:13:15;;;;;;;6.80;2.38;;;;;;;15.66;97.31;100527.13;5092405;28;20031;-46
2023/09/01 06:15:41;;;;;;;10.77;3.15;;;;;;;15.69;97.27;100537.41;5092737;28;20025;-48
2023/09/01 06:18:07;;;;;;;6.65;2.75;;;;;;;15.68;97.28;100532.28;5090869;28;20448;-46
2023/09/01 06:20:34;;;;;;;6.65;2.63;;;;;;;15.69;97.69;100528.50;5092392;28;20391;-46
2023/09/01 06:23:00;;;;;;;8.02;2.72;;;;;;;15.64;97.64;100523.03;5092135;28;20390;-46
2023/09/01 06:25:26;;;;;;;6.68;2.88;;;;;;;15.73;97.08;100518.88;5092467;28;20077;-46
2023/09/01 06:27:52;;;;;;;8.88;2.53;;;;;;;15.67;97.30;100522.56;5093086;28;20031;-45
2023/09/01 06:30:19;;;;;;;7.38;2.53;;;;;;;15.65;97.52;100530.06;5092390;28;20066;-46
2023/09/01 06:32:45;;;;;;;6.22;2.65;;;;;;;15.65;97.29;100525.47;5092423;28;20052;-47
2023/09/01 06:35:11;;;;;;;7.57;2.53;;;;;;;15.66;97.21;100529.84;5091877;28;20020;-46
2023/09/01 06:37:37;;;;;;;7.82;3.20;;;;;;;15.55;98.20;100522.63;5092418;28;20085;-47
2023/09/01 06:40:04;;;;;;;7.60;2.70;;;;;;;15.65;97.70;100532.75;5092550;28;20024;-46
2023/09/01 06:42:30;;;;;;;9.13;3.22;;;;;;;15.54;97.60;100515.56;5091977;28;20035;-46
2023/09/01 06:44:56;;;;;;;9.77;2.75;;;;;;;15.50;97.37;100517.97;5087352;28;20088;-46
2023/09/01 06:47:23;;;;;;;9.95;2.28;;;;;;;15.50;97.20;100519.84;5087771;28;20029;-46
2023/09/01 06:49:49;;;;;;;7.32;2.38;;;;;;;15.40;97.75;100520.50;5092215;28;20367;-46
2023/09/01 06:52:16;;;;;;;8.82;2.55;;;;;;;15.46;97.61;100526.78;5091493;28;20541;-46
2023/09/01 06:54:42;;;;;;;8.75;2.70;;;;;;;15.37;98.51;100529.06;5090601;28;20062;-45
2023/09/01 06:57:08;;;;;;;5.43;2.03;;;;;;;15.45;97.54;100527.84;5091686;28;20032;-45
2023/09/01 06:59:35;;;;;;;6.30;2.30;;;;;;;15.48;97.95;100530.84;5092039;28;20021;-46
2023/09/01 07:02:01;;;;;;;6.20;2.60;;;;;;;15.44;97.45;100529.75;5091589;28;20020;-46
2023/09/01 07:04:27;;;;;;;5.70;2.33;;;;;;;15.35;98.73;100530.38;5079254;28;20392;-45
2023/09/01 07:06:53;;;;;;;10.13;2.75;;;;;;;15.32;98.70;100532.53;5071457;28;20025;-44
2023/09/01 07:09:20;;;;;;;7.05;2.67;;;;;;;15.32;98.92;100537.06;5071626;28;20546;-45
2023/09/01 07:11:46;;;;;;;11.77;2.80;;;;;;;15.24;98.95;100524.81;5071539;28;20024;-45
2023/09/01 07:14:12;;;;;;;10.02;2.95;;;;;;;15.20;98.84;100525.53;5076004;28;20032;-45
2023/09/01 07:16:38;;;;;;;4.40;2.38;;;;;;;15.26;98.28;100516.47;5071356;28;20029;-44
2023/09/01 07:19:05;;;;;;;7.95;2.50;;;;;;;15.26;98.53;100514.59;5081259;28;20035;-45
2023/09/01 07:21:31;;;;;;;5.15;2.05;;;;;;;15.21;98.64;100519.09;5071258;28;20107;-45
2023/09/01 07:23:57;;;;;;;5.18;1.92;;;;;;;15.21;99.20;100511.00;5087769;28;20028;-44
2023/09/01 07:26:23;;;;;;;5.65;2.33;;;;;;;15.15;99.54;100512.78;5091414;28;20389;-45
2023/09/01 07:28:49;;;;;;;8.45;2.90;;;;;;;15.16;99.64;100517.16;5091506;28;20028;-45
2023/09/01 07:31:16;;;;;;;4.63;2.30;;;;;;;15.22;99.82;100526.13;5081501;28;20652;-45
2023/09/01 07:33:42;;;;;;;5.22;2.47;;;;;;;15.24;99.74;100522.13;5071070;28;20135;-45
2023/09/01 07:36:10;;;;;;;9.48;3.00;;;;;;;15.19;100.00;100526.59;5071214;28;20497;-46
2023/09/01 07:38:37;;;;;;;8.10;3.08;;;;;;;15.28;99.57;100522.47;5071444;28;20027;-45
2023/09/01 07:41:04;;;;;;;8.05;3.00;;;;;;;15.25;99.42;100529.13;5088573;28;20034;-45
2023/09/01 07:43:31;;;;;;;13.88;3.10;;;;;;;15.19;100.00;100526.59;5091209;28;20028;-44
2023/09/01 07:45:58;;;;;;;8.25;2.90;;;;;;;15.20;99.64;100529.06;5082819;28;20028;-45
2023/09/01 07:48:24;;;;;;;8.05;2.80;;;;;;;15.23;99.86;100538.56;5076316;28;20029;-48
2023/09/01 07:50:51;;;;;;;12.07;3.15;;;;;;;15.24;100.00;100535.59;5071276;28;20082;-45
2023/09/01 07:53:17;;;;;;;12.00;2.60;;;;;;;15.30;99.35;100544.59;5070239;28;20040;-45
2023/09/01 07:55:43;;;;;;;8.85;3.15;;;;;;;15.33;99.54;100533.34;5070681;28;20101;-45
2023/09/01 07:58:10;;;;;;;9.60;2.97;;;;;;;15.37;99.86;100542.53;5070749;28;20017;-45
2023/09/01 08:00:37;;;;;;;10.40;2.90;;;;;;;15.38;99.75;100543.34;5071099;28;20399;-45
2023/09/01 08:03:05;;;;;;;10.27;3.60;;;;;;;15.44;99.25;100540.53;5070320;28;20064;-45
2023/09/01 08:05:31;;;;;;;13.95;3.47;;;;;;;15.38;99.47;100536.13;5070935;28;20032;-44
2023/09/01 08:07:58;;;;;;;9.70;3.15;;;;;;;15.42;99.58;100531.84;5070772;28;20368;-46
2023/09/01 08:10:24;;;;;;;13.82;3.65;;;;;;;15.36;99.26;100532.81;5070963;28;20048;-44
2023/09/01 08:12:50;;;;;;;7.57;3.25;;;;;;;15.25;100.00;100523.75;5073158;28;20025;-45
2023/09/01 08:15:16;;;;;;;12.70;3.72;;;;;;;15.30;99.93;100531.09;5083696;28;20504;-45
2023/09/01 08:17:43;;;;;;;8.38;3.20;;;;;;;15.39;99.62;100521.56;5081986;28;20032;-44
2023/09/01 08:20:10;;;;;;;13.25;3.78;;;;;;;15.42;99.37;100526.44;5074563;28;20021;-44
2023/09/01 08:22:36;;;;;;;16.25;3.80;;;;;;;15.41;99.00;100519.41;5074161;28;20522;-44
2023/09/01 08:25:03;;;;;;;10.55;3.63;;;;;;;15.43;98.66;100519.97;5074004;28;20032;-46
2023/09/01 08:27:29;;;;;;;9.00;3.78;;;;;;;15.48;98.62;100516.56;5074526;28;20498;-44
2023/09/01 08:29:57;;;;;;;13.95;4.30;;;;;;;15.41;99.14;100519.41;5074676;28;20081;-45
2023/09/01 08:32:23;;;;;;;14.55;3.65;;;;;;;15.51;98.48;100507.97;5073461;28;20082;-45
2023/09/01 08:34:49;;;;;;;13.02;3.78;;;;;;;15.40;98.76;100512.41;5074472;28;20023;-44
2023/09/01 08:37:16;;;;;;;14.90;3.80;;;;;;;15.46;98.51;100506.03;5072910;28;20444;-45
2023/09/01 08:39:43;;;;;;;14.00;4.63;;;;;;;15.35;99.02;100516.91;5074225;28;20386;-46
2023/09/01 08:42:11;;;;;;;15.55;3.88;;;;;;;15.27;99.20;100513.56;5074112;28;20024;-47
2023/09/01 08:44:41;;;;;;;12.32;3.63;;;;;;;15.28;99.44;100520.56;5073613;28;20025;-45
2023/09/01 08:47:10;;;;;;;12.82;3.55;;;;;;;15.33;99.21;100522.53;5073348;28;20025;-44
2023/09/01 08:49:36;;;;;;;16.85;4.15;;;;;;;15.26;100.00;100513.78;5072619;28;20044;-44
2023/09/01 08:52:03;;;;;;;17.10;4.10;;;;;;;15.25;100.00;100518.34;5073892;28;20048;-46
2023/09/01 08:54:31;;;;;;;13.98;3.60;;;;;;;15.24;100.00;100526.69;5073245;28;20025;-44
2023/09/01 08:56:57;;;;;;;12.80;4.30;;;;;;;15.29;99.35;100506.03;5073937;28;20066;-44
2023/09/01 08:59:27;;;;;;;12.35;3.83;;;;;;;15.32;99.56;100502.00;5074121;28;20078;-45
2023/09/01 09:01:54;;;;;;;9.70;3.97;;;;;;;15.32;99.49;100515.50;5073996;28;20536;-44
2023/09/01 09:04:20;;;;;;;12.95;3.78;;;;;;;15.35;99.52;100508.81;5073416;28;20032;-45
2023/09/01 09:06:46;;;;;;;13.30;4.35;;;;;;;15.35;99.82;100515.00;5073767;28;20035;-44
2023/09/01 09:09:14;;;;;;;14.57;4.47;;;;;;;15.37;99.70;100522.84;5084193;28;20024;-45
2023/09/01 09:11:56;;;;;;;14.18;4.63;;;;;;;15.37;100.00;100523.66;5093913;28;20470;-44
2023/09/01 09:14:24;;;;;;;15.38;4.22;;;;;;;15.27;100.00;100507.34;5094006;28;20470;-46
2023/09/01 09:16:55;;;;;;;10.32;3.45;;;;;;;15.31;100.00;100517.38;5093801;28;20474;-44
2023/09/01 09:19:24;;;;;;;9.25;3.53;;;;;;;15.23;100.00;100516.97;5093644;28;20024;-44
2023/09/01 09:22:07;;;;;;;10.40;3.80;;;;;;;15.30;100.00;100512.22;5093751;28;20424;-45
2023/09/01 09:24:37;;;;;;;15.90;3.60;;;;;;;15.38;99.99;100511.84;5075340;28;20120;-45
2023/09/01 09:27:05;;;;;;;16.02;4.43;;;;;;;15.35;100.00;100514.19;5073209;28;20029;-45
2023/09/01 09:29:41;;;;;;;11.57;3.63;;;;;;;15.29;100.00;100518.69;5073117;28;20028;-44
2023/09/01 09:32:21;;;;;;;15.32;4.00;;;;;;;15.30;100.00;100504.16;5073317;28;20032;-45
2023/09/01 09:35:08;;;;;;;13.15;3.83;;;;;;;15.24;100.00;100510.53;5072883;28;20029;-44
2023/09/01 09:37:36;;;;;;;12.40;3.63;;;;;;;15.23;100.00;100511.59;5073269;28;20103;-45
2023/09/01 09:40:16;;;;;;;11.07;3.08;;;;;;;15.16;100.00;100508.25;5073237;28;20071;-45
2023/09/01 09:42:44;;;;;;;11.75;3.47;;;;;;;15.13;100.00;100514.09;5072771;28;20032;-45
2023/09/01 09:45:32;;;;;;;9.40;3.30;;;;;;;15.14;100.00;100513.84;5072946;28;20035;-44
2023/09/01 09:48:06;;;;;;;9.70;3.28;;;;;;;15.09;100.00;100508.38;5072786;28;20078;-45
2023/09/01 09:50:34;;;;;;;9.18;3.28;;;;;;;14.99;100.00;100513.59;5083247;28;20154;-45
2023/09/01 09:53:05;;;;;;;11.23;2.80;;;;;;;15.04;100.00;100508.28;5092715;28;20047;-45
2023/09/01 09:55:45;;;;;;;11.27;3.22;;;;;;;15.11;100.00;100517.06;5093236;28;20028;-45
2023/09/01 09:58:12;;;;;;;7.53;2.80;;;;;;;15.10;100.00;100518.09;5092755;28;20031;-44
2023/09/01 10:00:57;;;;;;;7.80;2.67;;;;;;;15.17;100.00;100521.47;5093042;28;20045;-44
2023/09/01 10:03:28;;;;;;;5.63;2.30;;;;;;;14.99;100.00;100522.53;5092659;28;20547;-45
2023/09/01 10:05:55;;;;;;;4.90;1.85;;;;;;;15.13;100.00;100530.28;5091532;28;20040;-45
2023/09/01 10:08:23;;;;;;;6.13;2.30;;;;;;;15.11;100.00;100524.31;5092619;28;20028;-45
2023/09/01 10:10:49;;;;;;;6.53;1.77;;;;;;;15.22;100.00;100528.84;5092636;28;20031;-44
2023/09/01 10:13:16;;;;;;;5.90;2.08;;;;;;;15.28;100.00;100530.53;5086608;28;20032;-45
2023/09/01 10:15:44;;;;;;;6.35;2.25;;;;;;;15.36;99.97;100527.44;5092418;28;20020;-45
2023/09/01 10:18:10;;;;;;;3.53;1.70;;;;;;;15.29;100.00;100535.69;5092770;28;20107;-44
2023/09/01 10:20:37;;;;;;;5.72;1.80;;;;;;;15.36;100.00;100538.22;5092741;28;20024;-44
2023/09/01 10:23:05;;;;;;;3.78;1.35;;;;;;;15.30;99.94;100541.91;5092736;28;20031;-45
2023/09/01 10:25:31;;;;;;;4.25;1.65;;;;;;;15.44;99.67;100539.72;5092336;28;20060;-44
2023/09/01 10:28:13;;;;;;;2.55;1.45;;;;;;;15.50;98.88;100538.72;5092652;28;20089;-44
2023/09/01 10:30:44;;;;;;;4.63;1.30;;;;;;;15.48;98.71;100555.13;5091494;28;20028;-45
2023/09/01 10:33:13;;;;;;;4.07;1.45;;;;;;;15.45;97.97;100552.13;5071287;28;20379;-44
2023/09/01 10:35:57;;;;;;;2.38;1.02;;;;;;;15.47;97.49;100550.00;5071786;28;20048;-45
2023/09/01 10:38:32;;;;;;;2.65;1.05;;;;;;;15.47;97.04;100561.59;5071332;28;20444;-44
2023/09/01 10:40:59;;;;;;;1.38;0.70;;;;;;;15.47;97.20;100558.09;5072276;28;20032;-45
2023/09/01 10:43:34;;;;;;;1.85;0.88;;;;;;;15.59;96.19;100542.63;5071949;28;20104;-45
2023/09/01 10:46:16;;;;;;;2.35;0.60;;;;;;;15.58;96.19;100547.19;5072297;28;20478;-45
2023/09/01 10:48:59;;;;;;;1.92;0.95;;;;;;;15.50;96.65;100552.22;5071666;28;20035;-44
2023/09/01 10:51:27;;;;;;;1.20;0.60;;;;;;;15.50;96.41;100560.31;5071830;28;20119;-46
2023/09/01 10:53:59;;;;;;;0.90;0.50;;;;;;;15.51;95.91;100556.53;5071328;28;20086;-45
2023/09/01 10:56:27;;;;;;;0.60;0.40;;;;;;;15.59;94.79;100548.03;5071895;28;20063;-45
2023/09/01 10:58:55;;;;;;;0.88;0.30;;;;;;;15.51;95.62;100545.75;5071171;28;20032;-45
2023/09/01 11:01:24;;;;;;;0.50;0.45;;;;;;;15.51;95.80;100549.25;5070068;28;20021;-45
2023/09/01 11:03:50;;;;;;;1.00;0.50;;;;;;;15.49;95.71;100546.00;5087188;28;20436;-44
2023/09/01 11:06:16;;;;;;;0.85;0.40;;;;;;;15.52;95.80;100544.69;5086239;28;20056;-45
2023/09/01 11:08:59;;;;;;;0.70;0.30;;;;;;;15.55;96.37;100553.09;5071751;28;20028;-44
2023/09/01 11:11:26;;;;;;;0.45;0.40;;;;;;;15.46;96.77;100551.06;5071438;28;20029;-45
2023/09/01 11:13:54;;;;;;;0.60;0.40;;;;;;;15.46;97.13;100548.38;5071311;28;20028;-46
2023/09/01 11:16:20;;;;;;;1.08;0.40;;;;;;;15.54;96.89;100551.44;5081903;28;20051;-45
2023/09/01 11:18:59;;;;;;;1.92;0.50;;;;;;;15.42;97.65;100541.81;5076390;28;20085;-43
2023/09/01 11:21:25;;;;;;;0.45;0.32;;;;;;;15.38;97.88;100552.28;5088812;28;20381;-44